Main page
METAR-TAF:

METAR-TAF

Airports :

Josefa Camejo International Airport

Paraguaná, Venezuela

latitude: 11-47N, longitude: 070-09W, elevation: 23 m

METAR: missing

Time: 18:54 (22:54 UTC)

Forecast

The report was made 6 hours and 54 minutes ago, at 16:00 UTC
Forecast valid from 20 at 18 UTC to 21 at 18 UTC
Wind 13 kt from the East
Visibility 10 km or more
Scattered clouds at a height of 1300 ft
Becoming
from 20 at 18 UTC to 20 at 23 UTC
Wind 5 kt from the East/Southeast
Visibility 10 km or more
Scattered clouds at a height of 1300 ft
Scattered clouds at a height of 6000 ft

TAF: SVJC 201600Z 2018/2118 08013KT 9999 SCT013 TX36/2019Z TN24/2107Z BECMG 2018/2023 11005KT 9999 SCT013 SCT060

Weather observations and forecasts of more than 4000 airports (METAR and TAF reports).

The available stations are represented by yellow and red dots on the map.

Hover mouse over dot to see the name of the station.

Then click to see weather observations and forecasts.

To change the map : click on the green buttons with a black cross to zoom in, on the green button with a dash to zoom out, or on the green arrows for adjacent maps.


METAR-TAF: